Time;durP1;ratioP1;P1;durP2;ratioP2;P2;SDS_P1;SDS_P2;PMS_P1;PMS_P2;Temp;Humidity;BMP_temperature;BMP_pressure;BME280_temperature;BME280_humidity;BME280_pressure;Samples;Min_cycle;Max_cycle;Signal;HPM_P1;HPM_P2
2022/05/09 00:01:54;;;;;;;8.20;7.70;;;16.70;49.10;;;;;;20454;6739;281888;-70
2022/05/09 00:04:30;;;;;;;8.37;7.97;;;16.90;49.30;;;;;;20803;6709;304888;-70
2022/05/09 00:07:06;;;;;;;7.90;7.40;;;17.20;48.90;;;;;;20983;6709;116990;-70
2022/05/09 00:09:42;;;;;;;8.37;7.87;;;17.00;48.80;;;;;;21022;6709;116931;-70
2022/05/09 00:12:17;;;;;;;7.83;7.40;;;16.30;50.00;;;;;;20783;6709;118423;-70
2022/05/09 00:14:53;;;;;;;8.77;8.27;;;16.30;49.50;;;;;;20750;6712;305507;-70
2022/05/09 00:17:29;;;;;;;8.17;7.53;;;16.50;50.00;;;;;;21025;6709;117695;-70
2022/05/09 00:20:05;;;;;;;9.50;8.90;;;16.40;49.70;;;;;;20729;6709;305878;-70
2022/05/09 00:22:50;;;;;;;9.60;9.00;;;16.80;49.70;;;;;;20758;6709;276404;-70
2022/05/09 00:25:27;;;;;;;7.70;7.30;;;16.80;49.70;;;;;;20979;6712;118430;-70
2022/05/09 00:28:03;;;;;;;8.10;7.53;;;16.60;49.70;;;;;;21008;6709;117335;-70
2022/05/09 00:30:38;;;;;;;9.03;8.43;;;16.20;50.10;;;;;;20905;6709;116888;-70
2022/05/09 00:33:14;;;;;;;8.63;8.00;;;15.90;50.40;;;;;;20977;6709;117274;-70
2022/05/09 00:35:50;;;;;;;9.57;9.00;;;15.90;51.20;;;;;;20747;6709;293139;-70
2022/05/09 00:38:28;;;;;;;8.47;7.97;;;15.90;51.20;;;;;;21005;6694;117449;-70
2022/05/09 00:43:57;;;;;;;8.77;8.07;;;15.60;51.10;;;;;;20939;6709;147664;-70
2022/05/09 00:46:33;;;;;;;8.80;8.20;;;15.30;51.30;;;;;;20999;6698;116794;-70
2022/05/09 00:49:28;;;;;;;10.63;9.98;;;15.20;51.70;;;;;;20802;6708;304555;-70
2022/05/09 00:52:10;;;;;;;9.47;8.80;;;15.50;52.70;;;;;;20784;6709;117388;-70
2022/05/09 00:54:49;;;;;;;10.13;9.52;;;15.70;52.20;;;;;;20751;6711;304547;-70
2022/05/09 00:57:35;;;;;;;9.90;9.33;;;15.60;52.10;;;;;;20807;6709;313262;-70
2022/05/09 01:00:12;;;;;;;10.70;10.10;;;16.00;51.50;;;;;;20714;6709;315711;-70
2022/05/09 01:02:59;;;;;;;9.03;8.53;;;16.20;51.20;;;;;;20971;6709;117686;-70
2022/05/09 01:05:33;;;;;;;9.10;8.60;;;16.00;51.20;;;;;;20978;6711;117269;-70
2022/05/09 01:08:09;;;;;;;8.97;8.40;;;15.60;51.70;;;;;;20992;6709;117194;-70
2022/05/09 01:10:45;;;;;;;9.37;8.67;;;15.10;52.40;;;;;;20896;6709;116928;-70
2022/05/09 01:13:20;;;;;;;8.80;8.27;;;15.10;52.40;;;;;;20970;6709;118008;-70
2022/05/09 01:15:56;;;;;;;9.50;8.90;;;15.00;52.80;;;;;;20951;6712;140192;-70
2022/05/09 01:18:32;;;;;;;8.57;7.97;;;14.90;53.10;;;;;;21016;6709;120318;-69
2022/05/09 01:21:07;;;;;;;10.45;9.85;;;14.90;53.80;;;;;;20642;6709;342097;-69
2022/05/09 01:23:43;;;;;;;10.43;9.80;;;15.60;52.20;;;;;;20712;6765;305653;-69
2022/05/09 01:26:19;;;;;;;10.10;9.50;;;15.60;52.20;;;;;;20653;6720;334674;-69
2022/05/09 01:28:55;;;;;;;10.67;10.07;;;15.90;51.50;;;;;;20783;6718;306393;-69
2022/05/09 01:31:30;;;;;;;11.43;10.73;;;16.10;51.20;;;;;;20582;6724;317267;-69
2022/05/09 01:34:09;;;;;;;9.83;9.23;;;16.20;51.20;;;;;;20970;6703;117669;-69
2022/05/09 01:36:42;;;;;;;9.67;9.07;;;15.90;51.30;;;;;;20956;6703;117419;-70
2022/05/09 01:39:17;;;;;;;10.87;10.07;;;15.50;52.00;;;;;;20995;6703;118584;-69
2022/05/09 01:41:53;;;;;;;12.10;11.20;;;15.10;52.50;;;;;;20573;6703;278231;-70
2022/05/09 01:44:28;;;;;;;11.50;10.80;;;15.30;53.40;;;;;;20959;6703;118580;-69
2022/05/09 01:49:59;;;;;;;10.17;9.53;;;15.10;53.30;;;;;;20955;6703;123906;-70
2022/05/09 01:52:36;;;;;;;10.27;9.40;;;15.00;53.60;;;;;;20968;6703;117123;-69
2022/05/09 01:55:12;;;;;;;9.93;9.33;;;14.90;53.90;;;;;;20980;6703;116995;-69
2022/05/09 01:57:49;;;;;;;9.83;9.13;;;14.80;54.00;;;;;;20997;6703;117908;-71
2022/05/09 02:00:24;;;;;;;10.65;10.05;;;14.80;54.00;;;;;;20734;6703;337053;-69
2022/05/09 02:02:59;;;;;;;9.57;8.97;;;15.10;53.70;;;;;;20983;6705;118442;-69
2022/05/09 02:05:34;;;;;;;9.30;8.70;;;15.20;53.20;;;;;;20979;6705;117419;-69
2022/05/09 02:08:10;;;;;;;11.55;10.88;;;15.10;53.30;;;;;;20726;6705;276672;-69
2022/05/09 02:10:45;;;;;;;11.97;11.27;;;15.30;52.90;;;;;;20579;6745;309244;-69
2022/05/09 02:13:21;;;;;;;10.90;10.20;;;15.70;52.40;;;;;;20914;6725;117627;-69
2022/05/09 02:15:56;;;;;;;11.80;11.10;;;15.50;52.10;;;;;;20650;6734;335518;-69
2022/05/09 02:18:32;;;;;;;11.10;10.50;;;15.60;52.10;;;;;;20707;6724;279512;-69
2022/05/09 02:21:08;;;;;;;11.20;10.57;;;16.10;50.80;;;;;;20613;6718;309446;-69
2022/05/09 02:23:44;;;;;;;10.63;10.03;;;16.00;50.70;;;;;;20737;6718;305666;-69
2022/05/09 02:26:19;;;;;;;10.60;9.90;;;16.20;50.30;;;;;;20961;6718;118364;-69
2022/05/09 02:28:56;;;;;;;10.35;9.85;;;15.80;51.50;;;;;;20730;6718;341335;-69
2022/05/09 02:31:32;;;;;;;10.07;9.47;;;15.80;50.80;;;;;;20825;6718;123076;-69
2022/05/09 02:34:08;;;;;;;9.80;9.23;;;15.60;51.00;;;;;;20964;6708;122764;-69
2022/05/09 02:36:43;;;;;;;12.00;11.30;;;15.30;51.50;;;;;;20761;6708;304989;-69
2022/05/09 02:39:19;;;;;;;12.40;11.57;;;15.60;50.80;;;;;;20753;6708;305691;-69
2022/05/09 02:41:55;;;;;;;11.23;10.53;;;15.60;50.80;;;;;;20778;6727;118824;-69
2022/05/09 02:44:31;;;;;;;11.73;11.02;;;15.40;51.00;;;;;;20697;6730;306628;-69
2022/05/09 02:47:09;;;;;;;11.27;10.47;;;15.40;51.50;;;;;;20946;6719;117213;-69
2022/05/09 02:49:42;;;;;;;11.63;10.73;;;15.20;51.60;;;;;;20969;6712;117749;-69
2022/05/09 02:52:18;;;;;;;12.15;11.45;;;14.80;51.90;;;;;;20528;6720;279393;-69
2022/05/09 02:54:54;;;;;;;11.93;11.13;;;15.00;52.40;;;;;;20942;6721;118475;-69
2022/05/09 02:57:30;;;;;;;12.20;11.20;;;14.90;52.30;;;;;;20847;6748;117511;-69
2022/05/09 03:00:10;;;;;;;13.25;12.45;;;14.80;52.90;;;;;;20664;6732;277061;-69
2022/05/09 03:04:38;;;;;;;12.53;11.73;;;14.70;52.80;;;;;;20970;6708;117305;-69
2022/05/09 03:05:22;;;;;;;12.73;12.03;;;14.70;53.20;;;;;;20725;6765;306499;-69
2022/05/09 03:07:57;;;;;;;12.87;11.97;;;14.80;53.60;;;;;;20916;6723;118530;-69
2022/05/09 03:10:34;;;;;;;13.68;12.88;;;14.90;53.80;;;;;;20727;6723;309771;-69
2022/05/09 03:13:09;;;;;;;12.53;11.60;;;14.90;53.80;;;;;;21017;6711;118343;-69
2022/05/09 03:15:45;;;;;;;11.93;11.13;;;14.80;53.60;;;;;;20978;6711;117260;-69
2022/05/09 03:18:20;;;;;;;9.67;9.07;;;14.60;53.80;;;;;;21028;6711;124057;-68
2022/05/09 03:20:56;;;;;;;10.15;9.45;;;14.40;54.00;;;;;;20667;6712;298344;-69
2022/05/09 03:23:32;;;;;;;8.50;7.97;;;14.60;53.70;;;;;;20971;6712;123530;-69
2022/05/09 03:26:07;;;;;;;9.53;8.93;;;14.60;53.40;;;;;;20932;6723;116500;-69
2022/05/09 03:28:43;;;;;;;8.77;8.20;;;14.30;53.60;;;;;;20937;6723;116966;-69
2022/05/09 03:31:19;;;;;;;9.25;8.65;;;14.40;53.80;;;;;;20637;6738;307593;-69
2022/05/09 03:33:55;;;;;;;10.10;9.30;;;14.40;53.80;;;;;;20912;6738;122883;-69
2022/05/09 03:36:30;;;;;;;9.13;8.33;;;14.40;53.40;;;;;;20982;6708;117495;-69
2022/05/09 03:39:06;;;;;;;9.33;8.73;;;14.20;53.50;;;;;;20979;6708;117268;-69
2022/05/09 03:41:43;;;;;;;9.75;9.25;;;14.00;53.60;;;;;;20616;6723;282969;-69
2022/05/09 03:44:19;;;;;;;11.30;10.60;;;14.20;52.80;;;;;;20786;6696;276026;-68
2022/05/09 03:47:14;;;;;;;10.43;9.60;;;14.60;52.00;;;;;;20963;6706;117571;-69
2022/05/09 03:49:50;;;;;;;10.00;9.20;;;14.50;51.90;;;;;;20902;6737;117241;-69
2022/05/09 03:52:25;;;;;;;12.20;11.27;;;14.10;52.50;;;;;;20539;6780;278138;-68
2022/05/09 03:55:01;;;;;;;11.90;11.00;;;14.20;52.70;;;;;;20742;6712;309712;-69
2022/05/09 03:57:49;;;;;;;11.20;10.50;;;14.50;52.20;;;;;;20709;6727;335257;-68
2022/05/09 04:00:25;;;;;;;11.30;10.60;;;14.80;51.60;;;;;;20673;6727;282534;-68
2022/05/09 04:03:00;;;;;;;11.07;10.47;;;14.90;51.40;;;;;;20680;6736;302741;-69
2022/05/09 04:05:36;;;;;;;11.43;10.73;;;15.00;51.20;;;;;;20678;6736;330368;-69
2022/05/09 04:08:12;;;;;;;10.97;10.37;;;15.10;51.20;;;;;;20661;6736;312021;-69
2022/05/09 04:10:47;;;;;;;11.77;11.00;;;15.20;51.40;;;;;;20590;6746;308543;-70
2022/05/09 04:13:22;;;;;;;11.93;11.13;;;15.40;51.70;;;;;;20986;6702;117253;-69
2022/05/09 04:18:59;;;;;;;11.37;10.57;;;14.90;52.60;;;;;;20927;6723;117738;-70
2022/05/09 04:21:30;;;;;;;12.80;12.10;;;14.90;52.00;;;;;;20553;6738;282920;-71
2022/05/09 04:24:06;;;;;;;11.47;10.80;;;15.00;52.10;;;;;;20642;6738;321518;-71
2022/05/09 04:26:41;;;;;;;10.85;10.25;;;15.20;51.70;;;;;;20722;6723;296578;-71
2022/05/09 04:29:17;;;;;;;11.00;10.30;;;15.40;51.50;;;;;;20668;6730;306173;-71
2022/05/09 04:31:52;;;;;;;10.17;9.60;;;15.60;51.20;;;;;;20714;6733;117698;-70
2022/05/09 04:34:28;;;;;;;11.30;10.60;;;15.30;51.30;;;;;;20899;6724;118613;-71
2022/05/09 04:37:03;;;;;;;10.85;10.25;;;15.00;51.90;;;;;;20648;6733;296151;-72
2022/05/09 04:39:39;;;;;;;11.03;10.23;;;15.00;52.20;;;;;;20903;6727;117279;-72
2022/05/09 04:42:15;;;;;;;10.77;9.97;;;14.90;52.20;;;;;;20710;6718;119923;-71
2022/05/09 04:44:50;;;;;;;12.15;11.38;;;14.60;52.60;;;;;;20697;6727;306205;-74
2022/05/09 04:47:26;;;;;;;10.10;9.47;;;14.80;53.30;;;;;;20849;6742;117347;-70
2022/05/09 04:50:02;;;;;;;11.07;10.35;;;14.70;53.20;;;;;;20688;6724;336452;-69
2022/05/09 04:52:37;;;;;;;11.47;10.77;;;14.90;53.40;;;;;;20653;6739;307216;-68
2022/05/09 04:55:13;;;;;;;10.13;9.43;;;15.30;52.90;;;;;;20843;6748;124202;-70
2022/05/09 04:57:49;;;;;;;10.10;9.50;;;15.20;52.80;;;;;;20833;6748;118169;-70
2022/05/09 05:00:25;;;;;;;11.50;10.70;;;14.90;53.30;;;;;;20632;6731;310278;-69
2022/05/09 05:03:01;;;;;;;10.90;10.18;;;15.10;53.60;;;;;;20735;6712;276411;-69
2022/05/09 05:05:36;;;;;;;11.50;10.77;;;15.40;53.10;;;;;;20746;6712;275751;-70
2022/05/09 05:08:12;;;;;;;10.30;9.63;;;15.80;52.60;;;;;;20727;6712;304448;-68
2022/05/09 05:10:52;;;;;;;11.00;10.38;;;16.00;52.00;;;;;;20630;6769;307480;-69
2022/05/09 05:13:24;;;;;;;10.33;9.77;;;16.20;51.90;;;;;;20565;6727;117295;-70
2022/05/09 05:15:59;;;;;;;11.32;10.63;;;16.00;52.40;;;;;;20706;6734;310628;-68
2022/05/09 05:18:35;;;;;;;11.80;11.10;;;16.00;52.30;;;;;;20680;6733;316321;-69
2022/05/09 05:21:10;;;;;;;11.30;10.50;;;16.20;52.10;;;;;;20777;6735;117323;-69
2022/05/09 05:23:47;;;;;;;9.23;8.67;;;16.10;52.20;;;;;;20895;6735;117424;-70
2022/05/09 05:26:21;;;;;;;10.85;10.15;;;15.80;52.50;;;;;;20721;6720;277104;-71
2022/05/09 05:28:58;;;;;;;11.83;10.90;;;15.80;52.40;;;;;;20890;6745;117471;-70
2022/05/09 05:31:36;;;;;;;11.77;11.03;;;15.80;52.40;;;;;;20587;6716;308597;-70
2022/05/09 05:34:09;;;;;;;10.50;9.90;;;15.90;52.80;;;;;;20835;6748;117624;-70
2022/05/09 05:36:45;;;;;;;10.10;9.60;;;15.90;52.80;;;;;;20694;6731;281812;-70
2022/05/09 06:11:32;;;;;;;9.77;9.17;;;17.60;50.30;;;;;;21582;6474;88705;-68
2022/05/09 06:13:59;;;;;;;10.27;9.30;;;17.40;50.50;;;;;;20823;6619;122488;-68
2022/05/09 06:16:23;;;;;;;10.45;9.88;;;17.00;50.90;;;;;;20543;6830;307959;-72
2022/05/09 06:18:52;;;;;;;9.27;8.60;;;17.10;50.90;;;;;;20764;6830;117837;-68
2022/05/09 06:21:14;;;;;;;9.60;9.00;;;17.00;51.10;;;;;;20540;6822;310614;-68
2022/05/09 06:23:40;;;;;;;9.17;8.67;;;17.20;51.30;;;;;;20754;6822;117136;-68
2022/05/09 06:26:05;;;;;;;9.90;9.30;;;17.20;51.20;;;;;;20530;6827;278871;-68
2022/05/09 06:28:31;;;;;;;9.00;8.50;;;17.40;51.40;;;;;;20731;6841;120391;-72
2022/05/09 06:30:57;;;;;;;9.57;8.97;;;17.40;51.40;;;;;;20693;6847;117775;-72
2022/05/09 06:33:22;;;;;;;9.97;9.10;;;17.50;52.40;;;;;;20541;6832;301768;-74
2022/05/09 06:35:47;;;;;;;8.33;7.83;;;18.10;51.30;;;;;;20753;6832;117903;-74
2022/05/09 06:38:17;;;;;;;8.70;8.20;;;18.60;51.40;;;;;;20740;6832;123279;-73
2022/05/09 06:40:42;;;;;;;12.05;11.25;;;19.00;51.50;;;;;;20551;6832;307482;-71
2022/05/09 06:43:07;;;;;;;12.40;11.40;;;19.80;48.90;;;;;;20543;6832;336896;-70
2022/05/09 06:45:33;;;;;;;10.25;9.55;;;21.30;45.40;;;;;;20552;6832;311955;-69
2022/05/09 06:47:59;;;;;;;9.20;8.70;;;21.20;45.90;;;;;;20745;6832;118826;-68
2022/05/09 06:50:28;;;;;;;9.17;8.50;;;21.50;45.80;;;;;;20546;6832;336892;-68
2022/05/09 06:52:54;;;;;;;9.73;9.13;;;21.80;45.30;;;;;;20543;6832;307535;-69
2022/05/09 06:55:19;;;;;;;6.77;6.40;;;22.20;44.50;;;;;;20766;6832;116966;-71
2022/05/09 06:57:45;;;;;;;8.05;7.55;;;22.30;44.60;;;;;;20560;6832;281027;-68
2022/05/09 07:00:14;;;;;;;8.40;8.00;;;22.40;43.40;;;;;;20529;6832;277455;-68
2022/05/09 07:02:41;;;;;;;7.67;7.27;;;22.60;43.10;;;;;;20747;6832;122662;-72
2022/05/09 07:05:07;;;;;;;7.50;7.00;;;22.60;43.10;;;;;;20530;6832;307904;-71
2022/05/09 07:07:34;;;;;;;7.67;7.27;;;22.70;42.60;;;;;;20511;6834;307018;-67
2022/05/09 07:10:00;;;;;;;8.18;7.68;;;23.20;41.20;;;;;;20513;6834;319669;-66
2022/05/09 07:12:26;;;;;;;8.48;7.97;;;23.10;41.10;;;;;;20510;6834;336993;-68
2022/05/09 07:14:51;;;;;;;8.57;8.07;;;23.30;40.60;;;;;;20532;6834;336517;-68
2022/05/09 07:17:17;;;;;;;7.70;7.20;;;23.40;40.50;;;;;;20758;6834;116918;-68
2022/05/09 07:19:43;;;;;;;8.40;7.85;;;23.20;41.20;;;;;;20704;6834;90595;-73
2022/05/09 07:22:08;;;;;;;8.40;7.80;;;22.90;41.80;;;;;;20736;6833;119896;-69
2022/05/09 07:24:35;;;;;;;8.73;8.13;;;22.60;42.40;;;;;;20512;6834;307864;-73
2022/05/09 07:27:00;;;;;;;8.37;7.93;;;22.70;42.20;;;;;;20754;6834;122825;-69
2022/05/09 07:29:26;;;;;;;9.20;8.70;;;22.60;42.50;;;;;;20548;6834;307951;-73
2022/05/09 07:31:51;;;;;;;8.80;8.30;;;22.70;42.10;;;;;;20529;6834;277550;-69
2022/05/09 07:34:17;;;;;;;7.62;7.22;;;23.00;41.90;;;;;;20761;6834;117077;-73
2022/05/09 07:36:42;;;;;;;8.90;8.37;;;22.90;42.20;;;;;;20550;6834;309739;-69
2022/05/09 07:39:08;;;;;;;8.37;7.87;;;23.00;41.40;;;;;;20766;6834;120649;-69
2022/05/09 07:41:34;;;;;;;7.90;7.40;;;22.90;42.00;;;;;;20757;6834;116964;-70
2022/05/09 07:43:59;;;;;;;8.67;7.90;;;22.80;42.30;;;;;;20746;6834;118090;-70
2022/05/09 07:46:25;;;;;;;7.97;7.57;;;22.50;42.80;;;;;;20765;6834;116746;-70
2022/05/09 07:48:52;;;;;;;9.27;8.63;;;22.50;42.80;;;;;;20541;6834;336459;-70
2022/05/09 07:51:17;;;;;;;9.02;8.32;;;22.80;41.70;;;;;;20547;6833;307191;-70
2022/05/09 07:53:42;;;;;;;8.07;7.57;;;23.10;41.70;;;;;;20761;6833;117344;-69
2022/05/09 07:56:08;;;;;;;8.60;8.10;;;23.20;41.80;;;;;;20536;6833;277440;-70
2022/05/09 07:58:33;;;;;;;8.25;7.62;;;23.40;41.80;;;;;;20771;6834;120975;-70
2022/05/09 08:00:59;;;;;;;9.50;8.90;;;23.50;41.90;;;;;;20542;6834;309040;-70
2022/05/09 08:03:24;;;;;;;9.30;8.60;;;23.60;41.10;;;;;;20551;6834;281944;-70
2022/05/09 08:05:52;;;;;;;9.15;8.60;;;23.80;41.60;;;;;;20519;6834;276442;-70
2022/05/09 08:08:17;;;;;;;8.03;7.53;;;24.00;41.00;;;;;;20757;6834;117190;-69
2022/05/09 08:10:42;;;;;;;8.23;7.83;;;23.90;41.20;;;;;;20756;6834;117121;-69
2022/05/09 08:13:08;;;;;;;8.27;7.77;;;23.60;41.50;;;;;;20751;6834;117447;-72
2022/05/09 08:15:34;;;;;;;8.60;7.90;;;23.50;42.10;;;;;;20748;6834;118525;-71
2022/05/09 08:18:01;;;;;;;8.35;7.90;;;23.30;42.30;;;;;;20520;6834;276714;-72
2022/05/09 08:20:25;;;;;;;8.73;8.13;;;23.60;41.80;;;;;;20536;6834;305621;-71
2022/05/09 08:23:00;;;;;;;8.93;8.30;;;24.00;41.60;;;;;;20536;6834;305611;-70
2022/05/09 08:25:25;;;;;;;8.17;7.67;;;24.40;40.30;;;;;;20754;6834;116916;-69
2022/05/09 08:27:51;;;;;;;8.97;8.37;;;24.30;40.60;;;;;;20518;6834;322868;-70
2022/05/09 08:30:18;;;;;;;7.53;6.97;;;24.40;41.20;;;;;;20762;6834;117216;-70
2022/05/09 08:32:43;;;;;;;8.20;7.70;;;24.30;41.10;;;;;;20542;6833;335994;-69
2022/05/09 08:35:09;;;;;;;7.70;7.18;;;24.50;40.60;;;;;;20752;6834;116105;-70
2022/05/09 08:37:35;;;;;;;8.20;7.60;;;24.50;41.00;;;;;;20545;6834;286121;-70
2022/05/09 08:40:00;;;;;;;8.67;7.97;;;24.80;40.70;;;;;;20735;6833;122733;-71
2022/05/09 08:42:26;;;;;;;7.53;7.10;;;24.70;40.60;;;;;;20761;6833;117113;-70
2022/05/09 08:45:04;;;;;;;7.43;7.03;;;24.60;40.50;;;;;;20516;6833;276493;-69
2022/05/09 08:48:00;;;;;;;7.23;6.60;;;24.80;40.20;;;;;;20734;6833;116938;-70
2022/05/09 08:50:55;;;;;;;7.20;6.70;;;24.80;40.60;;;;;;20744;6833;117598;-71
2022/05/09 08:53:23;;;;;;;8.00;7.40;;;24.70;41.00;;;;;;20476;6833;117338;-73
2022/05/09 08:55:48;;;;;;;7.40;6.80;;;24.80;40.90;;;;;;20537;6833;293003;-71
2022/05/09 08:58:19;;;;;;;7.33;6.77;;;24.80;40.90;;;;;;20722;6833;118493;-69
2022/05/09 09:00:44;;;;;;;8.00;7.40;;;25.00;40.70;;;;;;20521;6833;310796;-72
2022/05/09 09:03:19;;;;;;;7.43;6.90;;;25.20;38.80;;;;;;20756;6833;121278;-69
2022/05/09 09:05:46;;;;;;;7.50;7.00;;;25.30;39.00;;;;;;20553;6833;276857;-70
2022/05/09 09:08:28;;;;;;;7.67;7.07;;;25.30;38.30;;;;;;20730;6833;117906;-69
2022/05/09 09:10:56;;;;;;;6.80;6.30;;;25.30;38.60;;;;;;20742;6834;116986;-71
2022/05/09 09:13:26;;;;;;;7.07;6.60;;;25.30;38.60;;;;;;20506;6834;306986;-70
2022/05/09 09:16:22;;;;;;;7.20;6.80;;;25.30;38.60;;;;;;20708;6834;117538;-69
2022/05/09 09:19:16;;;;;;;6.57;6.17;;;25.30;38.80;;;;;;20742;6834;116459;-70
2022/05/09 09:21:45;;;;;;;6.80;6.40;;;25.30;38.80;;;;;;20759;6834;117772;-69
2022/05/09 09:24:30;;;;;;;6.87;6.47;;;25.20;39.00;;;;;;20533;6834;307037;-70
2022/05/09 09:27:15;;;;;;;6.70;6.30;;;25.50;38.20;;;;;;20764;6834;117000;-69
2022/05/09 09:29:43;;;;;;;6.90;6.50;;;25.80;37.70;;;;;;20563;6834;277410;-68
2022/05/09 09:32:11;;;;;;;6.40;6.10;;;25.80;37.70;;;;;;20508;6834;281014;-68
2022/05/09 09:34:37;;;;;;;6.53;5.93;;;26.10;37.20;;;;;;20763;6834;116530;-69
2022/05/09 09:37:27;;;;;;;7.27;6.63;;;26.20;36.10;;;;;;20525;6834;311949;-68
2022/05/09 09:39:52;;;;;;;7.97;7.37;;;26.20;36.00;;;;;;20539;6832;306857;-68
2022/05/09 09:42:18;;;;;;;7.40;6.93;;;26.30;36.50;;;;;;20777;6832;118269;-68
2022/05/09 09:44:44;;;;;;;6.80;6.40;;;26.30;36.80;;;;;;20558;6830;306888;-68
2022/05/09 09:47:10;;;;;;;6.20;5.90;;;26.30;37.20;;;;;;20766;6831;116778;-69
2022/05/09 09:49:39;;;;;;;7.43;6.72;;;26.20;37.40;;;;;;20612;6831;118328;-68
2022/05/09 09:52:21;;;;;;;7.10;6.73;;;26.10;37.90;;;;;;20512;6832;276543;-69
2022/05/09 09:54:53;;;;;;;6.20;5.80;;;26.30;37.70;;;;;;20709;6832;116804;-68
2022/05/09 09:57:19;;;;;;;5.97;5.63;;;26.40;37.70;;;;;;20752;6832;116937;-69
2022/05/09 09:59:45;;;;;;;6.17;5.77;;;26.30;38.60;;;;;;20750;6832;116820;-69
2022/05/09 10:02:19;;;;;;;6.43;6.00;;;26.20;38.20;;;;;;20733;6832;117158;-69
2022/05/09 10:04:43;;;;;;;6.78;6.30;;;26.40;36.80;;;;;;20530;6832;338765;-69
2022/05/09 10:07:10;;;;;;;7.00;6.60;;;26.40;36.80;;;;;;20543;6832;336369;-69
2022/05/09 10:10:06;;;;;;;7.07;6.67;;;26.70;36.60;;;;;;20757;6832;123695;-69
2022/05/09 10:12:30;;;;;;;7.68;7.15;;;26.50;36.70;;;;;;20539;6832;309779;-69
2022/05/09 10:14:55;;;;;;;6.80;6.40;;;26.30;36.10;;;;;;20553;6832;277409;-69
2022/05/09 10:17:28;;;;;;;6.40;6.00;;;26.30;36.60;;;;;;20760;6832;118115;-68
2022/05/09 10:19:53;;;;;;;7.50;7.00;;;26.30;36.80;;;;;;20528;6832;277717;-69
2022/05/09 10:25:22;;;;;;;7.13;6.57;;;26.30;37.00;;;;;;20544;6832;306663;-70
2022/05/09 10:27:48;;;;;;;6.53;6.03;;;26.60;36.60;;;;;;20756;6832;117400;-70
2022/05/09 10:30:19;;;;;;;6.53;6.10;;;26.70;36.60;;;;;;20640;6832;119094;-69
2022/05/09 10:32:45;;;;;;;6.70;6.22;;;26.50;36.90;;;;;;20556;6832;302582;-70
2022/05/09 10:35:20;;;;;;;6.50;6.00;;;26.60;36.60;;;;;;20560;6832;277119;-71
2022/05/09 10:37:48;;;;;;;6.07;5.70;;;26.90;35.80;;;;;;20551;6832;276920;-71
2022/05/09 10:40:21;;;;;;;6.70;6.30;;;27.00;35.70;;;;;;20509;6834;306142;-71
2022/05/09 10:42:46;;;;;;;6.47;5.97;;;27.10;35.20;;;;;;20455;6837;306621;-71
2022/05/09 10:45:18;;;;;;;5.90;5.60;;;27.30;36.00;;;;;;20766;6832;116517;-73
2022/05/09 10:47:56;;;;;;;6.03;5.53;;;27.30;35.80;;;;;;20489;6832;331590;-71
2022/05/09 10:50:49;;;;;;;5.63;5.33;;;27.30;34.90;;;;;;20745;6832;117132;-71
2022/05/09 10:53:30;;;;;;;5.87;5.37;;;27.00;35.90;;;;;;20551;6832;305806;-71
2022/05/09 10:55:55;;;;;;;6.20;5.70;;;26.90;34.60;;;;;;20746;6830;127499;-71
2022/05/09 10:58:30;;;;;;;5.73;5.43;;;26.60;35.00;;;;;;20562;6831;313039;-71
2022/05/09 11:00:55;;;;;;;5.87;5.37;;;26.50;34.50;;;;;;20760;6831;120465;-71
2022/05/09 11:03:39;;;;;;;5.10;4.80;;;26.30;35.00;;;;;;20767;6832;117378;-71
2022/05/09 11:06:26;;;;;;;5.47;5.17;;;26.00;35.40;;;;;;20751;6832;118211;-71
2022/05/09 11:09:32;;;;;;;5.10;4.83;;;25.70;35.80;;;;;;20766;6833;116089;-71
2022/05/09 11:12:17;;;;;;;5.47;5.03;;;25.40;36.20;;;;;;20535;6833;277056;-70
2022/05/09 11:14:53;;;;;;;5.37;5.03;;;26.30;35.00;;;;;;20553;6833;306562;-70
2022/05/09 11:17:35;;;;;;;5.10;4.90;;;26.30;35.00;;;;;;20739;6833;116956;-71
2022/05/09 11:20:17;;;;;;;5.15;4.85;;;26.40;35.30;;;;;;20537;6833;309490;-70
2022/05/09 11:22:42;;;;;;;4.80;4.53;;;26.60;33.40;;;;;;20763;6833;120814;-71
2022/05/09 11:25:10;;;;;;;4.70;4.50;;;26.60;34.10;;;;;;20566;6833;277199;-71
2022/05/09 11:27:34;;;;;;;4.53;4.32;;;26.60;34.00;;;;;;20533;6833;318400;-71
2022/05/09 11:30:39;;;;;;;4.57;4.10;;;27.00;34.10;;;;;;20728;6833;117484;-71
2022/05/09 11:33:30;;;;;;;4.50;4.20;;;27.00;33.60;;;;;;20769;6833;117470;-70
2022/05/09 11:35:51;;;;;;;4.75;4.45;;;27.00;33.60;;;;;;20517;6834;305422;-71
2022/05/09 11:38:33;;;;;;;4.77;4.37;;;27.20;32.60;;;;;;20737;6834;117123;-71
2022/05/09 11:41:18;;;;;;;4.10;3.90;;;27.10;32.40;;;;;;20532;6834;310875;-71
2022/05/09 11:44:00;;;;;;;4.57;4.20;;;27.00;31.80;;;;;;20539;6834;309873;-71
2022/05/09 11:47:06;;;;;;;4.07;3.87;;;27.20;32.60;;;;;;20754;6834;117101;-70
2022/05/09 11:49:58;;;;;;;4.50;4.20;;;27.10;32.50;;;;;;20544;6834;334117;-70
2022/05/09 11:52:28;;;;;;;4.70;4.40;;;26.90;33.30;;;;;;20728;6834;117157;-71
2022/05/09 11:54:53;;;;;;;4.40;4.10;;;26.90;32.70;;;;;;20760;6834;116984;-71
2022/05/09 11:57:26;;;;;;;4.60;4.30;;;26.70;33.30;;;;;;20525;6834;335524;-71
2022/05/09 11:59:51;;;;;;;7.23;4.17;;;26.90;33.00;;;;;;20724;6834;117088;-72
2022/05/09 12:02:17;;;;;;;4.90;4.60;;;26.90;32.50;;;;;;20498;6834;335151;-71
2022/05/09 12:04:45;;;;;;;5.00;4.60;;;26.90;31.60;;;;;;20458;6834;313494;-71
2022/05/09 12:07:21;;;;;;;4.77;4.43;;;27.00;31.10;;;;;;20753;6832;115988;-71
2022/05/09 12:10:16;;;;;;;4.40;4.20;;;26.70;31.70;;;;;;20541;6833;313017;-71
2022/05/09 12:12:41;;;;;;;4.73;4.47;;;26.70;33.00;;;;;;20551;6833;306938;-70
2022/05/09 12:15:16;;;;;;;5.43;4.43;;;26.90;32.00;;;;;;20758;6833;117332;-71
2022/05/09 12:17:48;;;;;;;5.00;4.57;;;26.80;32.10;;;;;;20558;6833;310745;-70
2022/05/09 12:20:12;;;;;;;4.87;4.57;;;26.70;32.40;;;;;;20740;6833;117256;-69
2022/05/09 12:22:41;;;;;;;4.70;4.40;;;26.70;32.40;;;;;;20667;6833;117380;-69
2022/05/09 12:25:06;;;;;;;4.20;4.00;;;26.50;32.50;;;;;;20752;6833;116957;-70
2022/05/09 12:27:39;;;;;;;4.77;4.47;;;26.30;32.80;;;;;;20539;6833;306150;-70
2022/05/09 12:30:06;;;;;;;5.63;4.20;;;26.50;33.90;;;;;;20733;6833;117088;-69
2022/05/09 12:32:31;;;;;;;4.25;3.95;;;26.60;33.20;;;;;;20513;6833;306998;-70
2022/05/09 12:34:57;;;;;;;4.53;4.20;;;26.60;31.40;;;;;;20759;6833;116991;-70
2022/05/09 12:37:24;;;;;;;4.60;4.33;;;26.50;32.00;;;;;;20756;6833;121732;-70
2022/05/09 12:39:52;;;;;;;4.25;4.03;;;26.30;32.60;;;;;;20535;6833;277587;-69
2022/05/09 12:42:27;;;;;;;4.83;4.53;;;26.40;32.80;;;;;;20747;6832;118222;-70
2022/05/09 12:44:52;;;;;;;4.50;4.20;;;26.50;32.60;;;;;;20550;6832;306831;-70
2022/05/09 12:47:28;;;;;;;5.40;4.27;;;26.60;32.70;;;;;;20554;6832;307249;-70
2022/05/09 12:50:07;;;;;;;4.30;4.10;;;26.90;32.80;;;;;;20531;6832;340665;-70
2022/05/09 12:52:36;;;;;;;4.30;4.00;;;27.10;31.20;;;;;;20753;6832;117532;-70
2022/05/09 12:57:47;;;;;;;3.83;3.50;;;26.80;31.80;;;;;;20770;6832;117015;-70
2022/05/09 13:00:16;;;;;;;4.43;4.03;;;26.60;32.20;;;;;;20537;6832;276702;-70
2022/05/09 13:02:41;;;;;;;4.17;3.87;;;26.60;32.00;;;;;;20524;6832;306322;-70
2022/05/09 13:05:07;;;;;;;3.70;3.50;;;26.80;31.40;;;;;;20763;6832;117062;-70
2022/05/09 13:07:32;;;;;;;4.13;3.73;;;26.80;31.00;;;;;;20756;6832;116807;-71
2022/05/09 13:09:58;;;;;;;3.80;3.60;;;26.40;31.50;;;;;;20743;6832;117342;-71
2022/05/09 13:12:27;;;;;;;4.03;3.83;;;26.40;31.70;;;;;;20543;6832;277617;-70
2022/05/09 13:14:53;;;;;;;3.80;3.53;;;26.50;31.10;;;;;;20552;6832;309818;-72
2022/05/09 13:17:31;;;;;;;3.93;3.73;;;26.70;30.00;;;;;;20536;6832;277062;-71
2022/05/09 13:19:57;;;;;;;3.92;3.53;;;26.90;30.10;;;;;;20521;6830;336329;-72
2022/05/09 13:22:22;;;;;;;3.97;3.78;;;27.00;29.70;;;;;;20543;6831;306535;-74
2022/05/09 13:24:48;;;;;;;3.87;3.67;;;27.10;30.70;;;;;;20534;6831;306225;-70
2022/05/09 13:27:13;;;;;;;4.05;3.85;;;27.20;31.10;;;;;;20751;6832;117248;-73
2022/05/09 13:29:39;;;;;;;3.40;3.30;;;27.10;30.70;;;;;;20517;6832;296706;-71
2022/05/09 13:32:05;;;;;;;3.50;3.30;;;27.00;30.60;;;;;;20726;6832;118128;-70
2022/05/09 13:34:31;;;;;;;3.67;3.50;;;26.90;30.60;;;;;;20748;6832;117429;-70
2022/05/09 13:36:57;;;;;;;4.30;3.90;;;26.80;31.80;;;;;;20553;6832;312237;-70
2022/05/09 13:39:26;;;;;;;4.27;4.07;;;26.80;31.80;;;;;;20542;6832;306993;-69
2022/05/09 13:41:52;;;;;;;3.80;3.60;;;27.00;31.40;;;;;;20500;6832;278142;-70
2022/05/09 13:44:21;;;;;;;3.87;3.67;;;27.10;31.90;;;;;;20760;6832;116918;-70
2022/05/09 13:46:47;;;;;;;3.77;3.47;;;27.00;31.30;;;;;;20741;6832;120789;-69
2022/05/09 13:49:12;;;;;;;4.27;4.07;;;26.70;31.40;;;;;;20759;6832;116721;-69